createdAt,value
2017-07-15T00:00:16.586Z,0
2017-07-15T00:01:26.859Z,0
2017-07-15T00:02:37.136Z,0
2017-07-15T00:03:47.413Z,0
2017-07-15T00:04:57.688Z,0
2017-07-15T00:06:08.269Z,0
2017-07-15T00:07:18.545Z,0
2017-07-15T00:08:28.195Z,0
2017-07-15T00:09:37.833Z,0
2017-07-15T00:10:48.101Z,0
2017-07-15T00:11:58.618Z,0
2017-07-15T00:13:09.128Z,0
2017-07-15T00:14:19.091Z,0
2017-07-15T00:15:29.044Z,0
2017-07-15T00:16:39.314Z,0
2017-07-15T00:17:49.846Z,0
2017-07-15T00:18:59.167Z,0
2017-07-15T00:20:09.458Z,0
2017-07-15T00:21:19.418Z,0
2017-07-15T00:22:29.677Z,0
2017-07-15T00:23:40.220Z,0
2017-07-15T00:24:50.183Z,0
2017-07-15T00:26:00.466Z,0
2017-07-15T00:27:10.733Z,0
2017-07-15T00:28:20.701Z,0
2017-07-15T00:29:30.584Z,0
2017-07-15T00:30:40.861Z,0
2017-07-15T00:31:50.828Z,0
2017-07-15T00:33:01.093Z,0
2017-07-15T00:34:11.360Z,0
2017-07-15T00:35:21.563Z,0
2017-07-15T00:36:31.832Z,0
2017-07-15T00:37:42.096Z,0
2017-07-15T00:38:52.375Z,0
2017-07-15T00:40:02.644Z,0
2017-07-15T00:41:13.157Z,0
2017-07-15T00:42:23.102Z,0
2017-07-15T00:43:33.374Z,0
2017-07-15T00:44:43.326Z,0
2017-07-15T00:45:53.588Z,0
2017-07-15T00:47:04.114Z,0
2017-07-15T00:48:14.108Z,0
2017-07-15T00:49:24.371Z,0
2017-07-15T00:50:34.324Z,0
2017-07-15T00:51:44.601Z,0
2017-07-15T00:52:54.815Z,0
2017-07-15T00:54:05.086Z,0
2017-07-15T00:55:15.359Z,0
2017-07-15T00:56:25.632Z,0
2017-07-15T00:57:35.594Z,0
2017-07-15T00:58:46.103Z,0
2017-07-15T00:59:56.372Z,0
2017-07-15T01:01:06.638Z,0
2017-07-15T01:02:16.909Z,0
2017-07-15T01:03:26.234Z,0
2017-07-15T01:04:36.740Z,0
2017-07-15T01:05:47.006Z,0
2017-07-15T01:06:56.957Z,0
2017-07-15T01:08:06.905Z,0
2017-07-15T01:09:16.890Z,0
2017-07-15T01:10:27.115Z,0
2017-07-15T01:11:37.373Z,0
2017-07-15T01:12:47.308Z,0
2017-07-15T01:13:57.593Z,0
2017-07-15T01:15:07.861Z,0
2017-07-15T01:16:18.382Z,0
2017-07-15T01:17:28.646Z,0
2017-07-15T01:18:38.915Z,0
2017-07-15T01:19:49.182Z,0
2017-07-15T01:20:59.444Z,0
2017-07-15T01:22:09.648Z,0
2017-07-15T01:23:19.277Z,0
2017-07-15T01:24:29.523Z,0
2017-07-15T01:25:39.475Z,0
2017-07-15T01:26:49.422Z,0
2017-07-15T01:27:59.938Z,0
2017-07-15T01:29:10.201Z,0
2017-07-15T01:30:20.151Z,0
2017-07-15T01:31:30.477Z,0
2017-07-15T01:32:40.740Z,0
2017-07-15T01:33:50.945Z,0
2017-07-15T01:35:01.209Z,0
2017-07-15T01:36:11.466Z,0
2017-07-15T01:37:21.730Z,0
2017-07-15T01:38:31.681Z,0
2017-07-15T01:39:42.185Z,0
2017-07-15T01:40:52.141Z,0
2017-07-15T01:42:02.425Z,0
2017-07-15T01:43:12.708Z,0
2017-07-15T01:44:22.665Z,0
2017-07-15T01:45:32.872Z,0
2017-07-15T01:46:42.489Z,0
2017-07-15T01:47:52.754Z,0
2017-07-15T01:49:03.026Z,0
2017-07-15T01:50:13.299Z,0
2017-07-15T01:51:23.509Z,0
2017-07-15T01:52:32.846Z,0
2017-07-15T01:53:43.117Z,0
2017-07-15T01:54:53.374Z,0
2017-07-15T01:56:03.633Z,0
2017-07-15T01:57:14.155Z,0
2017-07-15T01:58:24.416Z,0
2017-07-15T01:59:34.823Z,0
2017-07-15T02:00:45.099Z,0
2017-07-15T02:01:55.363Z,0
2017-07-15T02:03:05.890Z,0
2017-07-15T02:04:15.838Z,0
2017-07-15T02:05:26.088Z,0
2017-07-15T02:06:36.351Z,0
2017-07-15T02:07:46.316Z,0
2017-07-15T02:08:56.509Z,0
2017-07-15T02:10:06.455Z,0
2017-07-15T02:11:16.749Z,0
2017-07-15T02:12:27.030Z,0
2017-07-15T02:13:36.973Z,0
2017-07-15T02:14:47.184Z,0
2017-07-15T02:15:57.436Z,0
2017-07-15T02:17:07.717Z,0
2017-07-15T02:18:17.983Z,0
2017-07-15T02:19:27.612Z,0
2017-07-15T02:20:38.145Z,0
2017-07-15T02:21:48.417Z,0
2017-07-15T02:22:58.677Z,0
2017-07-15T02:24:08.958Z,0
2017-07-15T02:25:19.230Z,0
2017-07-15T02:26:29.764Z,0
2017-07-15T02:27:40.042Z,0
2017-07-15T02:28:50.315Z,0
2017-07-15T02:30:00.570Z,0
2017-07-15T02:31:10.511Z,0
2017-07-15T02:32:21.028Z,0
2017-07-15T02:33:31.283Z,0
2017-07-15T02:34:41.550Z,0
2017-07-15T02:35:51.500Z,0
2017-07-15T02:37:01.750Z,0
2017-07-15T02:38:12.263Z,0
2017-07-15T02:39:21.900Z,0
2017-07-15T02:40:32.174Z,0
2017-07-15T02:41:42.472Z,0
2017-07-15T02:42:52.736Z,0
2017-07-15T02:44:03.245Z,0
2017-07-15T02:45:13.190Z,0
2017-07-15T02:46:22.857Z,0
2017-07-15T02:47:33.129Z,0
2017-07-15T02:48:43.411Z,0
2017-07-15T02:49:53.925Z,0
2017-07-15T02:51:03.873Z,0
2017-07-15T02:52:14.169Z,5
2017-07-15T02:53:24.126Z,5
2017-07-15T02:54:34.078Z,5
2017-07-15T02:55:44.599Z,5
2017-07-15T02:56:54.588Z,5
2017-07-15T02:58:04.862Z,5
2017-07-15T02:59:14.831Z,5
2017-07-15T03:00:24.470Z,5
2017-07-15T03:01:34.991Z,10
2017-07-15T03:02:45.255Z,10
2017-07-15T03:03:55.547Z,10
2017-07-15T03:05:05.822Z,10
2017-07-15T03:06:15.776Z,10
2017-07-15T03:07:26.350Z,15
2017-07-15T03:08:36.308Z,15
2017-07-15T03:09:46.573Z,15
2017-07-15T03:10:56.524Z,15
2017-07-15T03:12:06.475Z,20
2017-07-15T03:13:16.979Z,20
2017-07-15T03:14:27.249Z,25
2017-07-15T03:15:37.530Z,25
2017-07-15T03:16:47.170Z,25
2017-07-15T03:17:57.125Z,30
2017-07-15T03:19:07.628Z,30
2017-07-15T03:20:17.913Z,35
2017-07-15T03:21:27.859Z,35
2017-07-15T03:22:37.813Z,40
2017-07-15T03:23:47.749Z,40
2017-07-15T03:24:58.306Z,45
2017-07-15T03:26:08.252Z,45
2017-07-15T03:27:18.198Z,45
2017-07-15T03:28:27.846Z,50
2017-07-15T03:29:37.804Z,50
2017-07-15T03:30:48.004Z,55
2017-07-15T03:31:58.277Z,55
2017-07-15T03:33:08.216Z,60
2017-07-15T03:34:18.479Z,60
2017-07-15T03:35:28.098Z,65
2017-07-15T03:36:38.305Z,65
2017-07-15T03:37:48.245Z,70
2017-07-15T03:38:58.207Z,70
2017-07-15T03:40:08.463Z,75
2017-07-15T03:41:18.426Z,75
2017-07-15T03:42:28.300Z,80
2017-07-15T03:43:38.551Z,80
2017-07-15T03:44:48.165Z,80
2017-07-15T03:45:58.110Z,85
2017-07-15T03:47:07.725Z,85
2017-07-15T03:48:17.914Z,85
2017-07-15T03:49:27.856Z,90
2017-07-15T03:50:38.132Z,90
2017-07-15T03:51:48.396Z,95
2017-07-15T03:52:58.676Z,95
2017-07-15T03:54:09.188Z,100
2017-07-15T03:55:19.445Z,105
2017-07-15T03:56:29.715Z,105
2017-07-15T03:57:39.999Z,110
2017-07-15T03:58:50.267Z,110
2017-07-15T04:00:00.791Z,115
2017-07-15T04:01:11.054Z,115
2017-07-15T04:02:21.318Z,120
2017-07-15T04:03:31.593Z,115
2017-07-15T04:04:41.866Z,120
2017-07-15T04:05:52.387Z,120
2017-07-15T04:07:02.644Z,120
2017-07-15T04:08:12.899Z,125
2017-07-15T04:09:23.165Z,130
2017-07-15T04:10:33.434Z,125
2017-07-15T04:11:43.948Z,130
2017-07-15T04:12:54.202Z,135
2017-07-15T04:14:04.462Z,135
2017-07-15T04:15:14.743Z,140
2017-07-15T04:16:24.706Z,145
2017-07-15T04:17:35.239Z,150
2017-07-15T04:18:45.193Z,150
2017-07-15T04:19:55.143Z,155
2017-07-15T04:21:05.415Z,155
2017-07-15T04:22:15.682Z,155
2017-07-15T04:23:26.182Z,150
2017-07-15T04:24:36.445Z,150
2017-07-15T04:25:46.711Z,150
2017-07-15T04:26:56.985Z,150
2017-07-15T04:28:07.258Z,155
2017-07-15T04:29:17.812Z,155
2017-07-15T04:30:27.754Z,155
2017-07-15T04:31:38.024Z,160
2017-07-15T04:32:48.284Z,160
2017-07-15T04:33:58.550Z,160
2017-07-15T04:35:08.754Z,165
2017-07-15T04:36:19.030Z,165
2017-07-15T04:37:28.978Z,165
2017-07-15T04:38:39.239Z,170
2017-07-15T04:39:49.511Z,170
2017-07-15T04:41:00.030Z,175
2017-07-15T04:42:09.990Z,180
2017-07-15T04:43:20.257Z,185
2017-07-15T04:44:30.535Z,185
2017-07-15T04:45:40.811Z,190
2017-07-15T04:46:51.333Z,195
2017-07-15T04:48:00.977Z,200
2017-07-15T04:49:11.239Z,205
2017-07-15T04:50:21.502Z,215
2017-07-15T04:51:31.455Z,220
2017-07-15T04:52:41.977Z,220
2017-07-15T04:53:51.621Z,225
2017-07-15T04:55:01.904Z,225
2017-07-15T04:56:11.849Z,225
2017-07-15T04:57:22.114Z,230
2017-07-15T04:58:32.628Z,235
2017-07-15T04:59:42.909Z,235
2017-07-15T05:00:53.193Z,240
2017-07-15T05:02:03.467Z,245
2017-07-15T05:03:13.749Z,245
2017-07-15T05:04:24.276Z,250
2017-07-15T05:05:34.548Z,250
2017-07-15T05:06:44.824Z,245
2017-07-15T05:07:55.086Z,245
2017-07-15T05:09:04.719Z,245
2017-07-15T05:10:15.208Z,245
2017-07-15T05:11:25.171Z,245
2017-07-15T05:12:35.122Z,250
2017-07-15T05:13:45.375Z,250
2017-07-15T05:14:55.322Z,255
2017-07-15T05:16:05.201Z,255
2017-07-15T05:17:14.842Z,260
2017-07-15T05:18:25.102Z,260
2017-07-15T05:19:35.072Z,265
2017-07-15T05:20:45.343Z,265
2017-07-15T05:21:55.857Z,270
2017-07-15T05:23:05.494Z,270
2017-07-15T05:24:15.747Z,270
2017-07-15T05:25:25.715Z,270
2017-07-15T05:26:35.994Z,270
2017-07-15T05:27:46.519Z,270
2017-07-15T05:28:56.480Z,270
2017-07-15T05:30:06.762Z,270
2017-07-15T05:31:17.018Z,270
2017-07-15T05:32:26.985Z,275
2017-07-15T05:33:37.702Z,275
2017-07-15T05:34:47.970Z,275
2017-07-15T05:35:58.242Z,280
2017-07-15T05:37:08.512Z,280
2017-07-15T05:38:18.494Z,285
2017-07-15T05:39:29.022Z,285
2017-07-15T05:40:38.949Z,285
2017-07-15T05:41:48.265Z,285
2017-07-15T05:42:58.533Z,290
2017-07-15T05:44:08.481Z,290
2017-07-15T05:45:18.992Z,295
2017-07-15T05:46:28.956Z,300
2017-07-15T05:47:38.899Z,305
2017-07-15T05:48:49.171Z,310
2017-07-15T05:49:58.805Z,315
2017-07-15T05:51:09.377Z,320
2017-07-15T05:52:19.646Z,325
2017-07-15T05:53:29.280Z,330
2017-07-15T05:54:39.544Z,335
2017-07-15T05:55:49.824Z,350
2017-07-15T05:57:00.341Z,360
2017-07-15T05:58:10.596Z,360
2017-07-15T05:59:20.860Z,365
2017-07-15T06:00:31.144Z,365
2017-07-15T06:01:41.404Z,360
2017-07-15T06:02:51.618Z,355
2017-07-15T06:04:01.597Z,355
2017-07-15T06:05:11.227Z,350
2017-07-15T06:06:21.475Z,345
2017-07-15T06:07:31.427Z,350
2017-07-15T06:08:41.941Z,345
2017-07-15T06:09:51.566Z,345
2017-07-15T06:11:01.831Z,345
2017-07-15T06:12:11.792Z,345
2017-07-15T06:13:22.067Z,345
2017-07-15T06:14:32.649Z,345
2017-07-15T06:15:42.924Z,345
2017-07-15T06:16:53.195Z,340
2017-07-15T06:18:03.460Z,340
2017-07-15T06:19:13.085Z,340
2017-07-15T06:20:23.300Z,335
2017-07-15T06:21:33.584Z,335
2017-07-15T06:22:43.859Z,335
2017-07-15T06:23:54.124Z,335
2017-07-15T06:25:04.088Z,340
2017-07-15T06:26:14.608Z,340
2017-07-15T06:27:24.871Z,340
2017-07-15T06:28:34.819Z,345
2017-07-15T06:29:45.090Z,345
2017-07-15T06:30:55.376Z,345
2017-07-15T06:32:05.893Z,350
2017-07-15T06:33:16.191Z,350
2017-07-15T06:34:26.142Z,350
2017-07-15T06:35:36.105Z,350
2017-07-15T06:36:46.370Z,355
2017-07-15T06:37:56.879Z,355
2017-07-15T06:39:07.147Z,355
2017-07-15T06:40:17.107Z,355
2017-07-15T06:41:27.073Z,355
2017-07-15T06:42:37.321Z,360
2017-07-15T06:43:47.888Z,360
2017-07-15T06:44:58.159Z,360
2017-07-15T06:46:08.430Z,360
2017-07-15T06:47:18.387Z,360
2017-07-15T06:48:28.660Z,365
2017-07-15T06:49:38.925Z,365
2017-07-15T06:50:49.186Z,365
2017-07-15T06:51:59.460Z,370
2017-07-15T06:53:09.734Z,370
2017-07-15T06:54:19.672Z,370
2017-07-15T06:55:30.207Z,375
2017-07-15T06:56:40.170Z,375
2017-07-15T06:57:50.430Z,375
2017-07-15T06:59:00.380Z,375
2017-07-15T07:00:10.642Z,380
2017-07-15T07:01:20.864Z,380
2017-07-15T07:02:31.143Z,380
2017-07-15T07:03:41.403Z,380
2017-07-15T07:04:51.374Z,385
2017-07-15T07:06:01.325Z,385
2017-07-15T07:07:11.220Z,385
2017-07-15T07:08:21.185Z,390
2017-07-15T07:09:30.823Z,390
2017-07-15T07:10:40.788Z,390
2017-07-15T07:11:51.041Z,390
2017-07-15T07:13:01.295Z,395
2017-07-15T07:14:11.261Z,395
2017-07-15T07:15:21.215Z,395
2017-07-15T07:16:31.156Z,395
2017-07-15T07:17:40.781Z,400
2017-07-15T07:18:50.981Z,400
2017-07-15T07:20:00.935Z,400
2017-07-15T07:21:10.898Z,400
2017-07-15T07:22:20.845Z,405
2017-07-15T07:23:31.105Z,405
2017-07-15T07:24:41.303Z,410
2017-07-15T07:25:51.264Z,410
2017-07-15T07:27:01.522Z,410
2017-07-15T07:28:11.489Z,415
2017-07-15T07:29:21.437Z,415
2017-07-15T07:30:31.965Z,415
2017-07-15T07:31:42.253Z,420
2017-07-15T07:32:52.209Z,420
2017-07-15T07:34:02.483Z,420
2017-07-15T07:35:12.423Z,425
2017-07-15T07:36:22.969Z,425
2017-07-15T07:37:33.227Z,430
2017-07-15T07:38:43.173Z,430
2017-07-15T07:39:53.447Z,430
2017-07-15T07:41:03.087Z,430
2017-07-15T07:42:13.298Z,435
2017-07-15T07:43:23.569Z,435
2017-07-15T07:44:33.834Z,435
2017-07-15T07:45:44.112Z,435
2017-07-15T07:46:54.387Z,440
2017-07-15T07:48:04.919Z,440
2017-07-15T07:49:15.198Z,440
2017-07-15T07:50:25.153Z,440
2017-07-15T07:51:35.660Z,445
2017-07-15T07:52:45.605Z,445
2017-07-15T07:53:56.128Z,455
2017-07-15T07:55:06.407Z,450
2017-07-15T07:56:16.691Z,455
2017-07-15T07:57:26.645Z,455
2017-07-15T07:58:36.911Z,460
2017-07-15T07:59:47.116Z,460
2017-07-15T08:00:57.383Z,465
2017-07-15T08:02:07.360Z,470
2017-07-15T08:03:17.630Z,470
2017-07-15T08:04:27.577Z,475
2017-07-15T08:05:37.156Z,480
2017-07-15T08:06:47.456Z,480
2017-07-15T08:07:57.098Z,485
2017-07-15T08:09:07.052Z,485
2017-07-15T08:10:17.319Z,485
2017-07-15T08:11:27.846Z,485
2017-07-15T08:12:37.818Z,490
2017-07-15T08:13:47.810Z,495
2017-07-15T08:14:57.790Z,500
2017-07-15T08:16:07.745Z,500
2017-07-15T08:17:18.309Z,505
2017-07-15T08:18:28.254Z,505
2017-07-15T08:19:38.538Z,510
2017-07-15T08:20:48.493Z,515
2017-07-15T08:21:58.456Z,525
2017-07-15T08:23:08.673Z,530
2017-07-15T08:24:18.936Z,530
2017-07-15T08:25:29.208Z,530
2017-07-15T08:26:39.483Z,530
2017-07-15T08:27:49.447Z,535
2017-07-15T08:28:59.672Z,540
2017-07-15T08:30:09.311Z,550
2017-07-15T08:31:19.573Z,555
2017-07-15T08:32:29.849Z,560
2017-07-15T08:33:39.798Z,565
2017-07-15T08:34:49.998Z,570
2017-07-15T08:35:59.952Z,570
2017-07-15T08:37:10.240Z,575
2017-07-15T08:38:20.515Z,695
2017-07-15T08:39:30.794Z,1170
2017-07-15T08:40:41.003Z,1280
2017-07-15T08:41:50.986Z,1320
2017-07-15T08:43:01.256Z,1340
2017-07-15T08:44:11.557Z,1340
2017-07-15T08:45:21.513Z,1375
2017-07-15T08:46:31.716Z,1305
2017-07-15T08:47:42.004Z,1390
2017-07-15T08:48:52.294Z,1495
2017-07-15T08:50:02.563Z,1540
2017-07-15T08:51:12.517Z,1325
2017-07-15T08:52:22.777Z,1425
2017-07-15T08:53:32.737Z,1560
2017-07-15T08:54:43.001Z,1485
2017-07-15T08:55:53.291Z,1490
2017-07-15T08:57:03.588Z,1490
2017-07-15T08:58:14.119Z,1540
2017-07-15T08:59:24.406Z,1575
2017-07-15T09:00:34.373Z,1525
2017-07-15T09:01:44.351Z,1550
2017-07-15T09:02:54.632Z,1550
2017-07-15T09:04:04.575Z,1715
2017-07-15T09:05:14.860Z,1700
2017-07-15T09:06:24.517Z,715
2017-07-15T09:07:34.815Z,745
2017-07-15T09:08:45.106Z,770
2017-07-15T09:09:55.315Z,795
2017-07-15T09:11:05.269Z,1795
2017-07-15T09:12:15.551Z,1770
2017-07-15T09:13:25.845Z,1855
2017-07-15T09:14:35.825Z,1880
2017-07-15T09:15:46.032Z,1380
2017-07-15T09:16:56.020Z,810
2017-07-15T09:18:06.325Z,965
2017-07-15T09:19:16.309Z,1505
2017-07-15T09:20:26.588Z,705
2017-07-15T09:21:36.810Z,665
2017-07-15T09:22:47.084Z,675
2017-07-15T09:23:57.040Z,690
2017-07-15T09:25:07.304Z,705
2017-07-15T09:26:17.270Z,1085
2017-07-15T09:27:27.801Z,705
2017-07-15T09:28:38.085Z,690
2017-07-15T09:29:48.355Z,700
2017-07-15T09:30:58.636Z,710
2017-07-15T09:32:08.937Z,710
2017-07-15T09:33:19.151Z,725
2017-07-15T09:34:29.116Z,780
2017-07-15T09:35:39.390Z,850
2017-07-15T09:36:49.687Z,2185
2017-07-15T09:37:59.983Z,2285
2017-07-15T09:39:10.192Z,2195
2017-07-15T09:40:20.484Z,1215
2017-07-15T09:41:30.456Z,2100
2017-07-15T09:42:40.412Z,2020
2017-07-15T09:43:50.694Z,1085
2017-07-15T09:45:01.270Z,855
2017-07-15T09:46:11.558Z,775
2017-07-15T09:47:21.508Z,735
2017-07-15T09:48:31.795Z,670
2017-07-15T09:49:42.087Z,645
2017-07-15T09:50:52.621Z,645
2017-07-15T09:52:02.904Z,640
2017-07-15T09:53:12.868Z,635
2017-07-15T09:54:23.163Z,660
2017-07-15T09:55:33.443Z,695
2017-07-15T09:56:43.974Z,805
2017-07-15T09:57:54.249Z,2250
2017-07-15T09:59:04.216Z,2235
2017-07-15T10:00:14.493Z,2240
2017-07-15T10:01:24.458Z,2220
2017-07-15T10:02:35.030Z,2120
2017-07-15T10:03:45.293Z,1550
2017-07-15T10:04:55.586Z,845
2017-07-15T10:06:05.924Z,810
2017-07-15T10:07:15.883Z,810
2017-07-15T10:08:26.411Z,790
2017-07-15T10:09:36.364Z,725
2017-07-15T10:10:46.636Z,690
2017-07-15T10:11:56.915Z,695
2017-07-15T10:13:07.194Z,710
2017-07-15T10:14:17.422Z,735
2017-07-15T10:15:27.709Z,775
2017-07-15T10:16:37.992Z,1660
2017-07-15T10:17:47.958Z,2040
2017-07-15T10:18:58.261Z,2435
2017-07-15T10:20:08.800Z,2415
2017-07-15T10:21:19.077Z,2550
2017-07-15T10:22:29.033Z,2670
2017-07-15T10:23:38.684Z,2700
2017-07-15T10:24:48.653Z,2770
2017-07-15T10:25:59.167Z,2735
2017-07-15T10:27:09.455Z,1190
2017-07-15T10:28:19.437Z,905
2017-07-15T10:29:29.413Z,840
2017-07-15T10:30:39.721Z,780
2017-07-15T10:31:50.319Z,735
2017-07-15T10:33:00.283Z,690
2017-07-15T10:34:10.559Z,645
2017-07-15T10:35:20.828Z,600
2017-07-15T10:36:30.822Z,550
2017-07-15T10:37:41.026Z,520
2017-07-15T10:38:51.303Z,510
2017-07-15T10:40:01.575Z,510
2017-07-15T10:41:11.853Z,525
2017-07-15T10:42:21.835Z,550
2017-07-15T10:43:32.351Z,580
2017-07-15T10:44:42.640Z,600
2017-07-15T10:45:51.965Z,610
2017-07-15T10:47:02.245Z,630
2017-07-15T10:48:12.221Z,615
2017-07-15T10:49:22.735Z,585
2017-07-15T10:50:33.033Z,580
2017-07-15T10:51:43.306Z,600
2017-07-15T10:52:52.941Z,640
2017-07-15T10:54:03.229Z,695
2017-07-15T10:55:13.756Z,2475
2017-07-15T10:56:23.395Z,2340
2017-07-15T10:57:33.672Z,2765
2017-07-15T10:58:43.934Z,2770
2017-07-15T10:59:54.213Z,2800
2017-07-15T11:01:04.429Z,2840
2017-07-15T11:02:14.720Z,2890
2017-07-15T11:03:25.005Z,3000
2017-07-15T11:04:34.982Z,3040
2017-07-15T11:05:44.965Z,3010
2017-07-15T11:06:55.486Z,2965
2017-07-15T11:08:05.803Z,3020
2017-07-15T11:09:16.084Z,3035
2017-07-15T11:10:26.065Z,3155
2017-07-15T11:11:36.366Z,3155
2017-07-15T11:12:46.901Z,2975
2017-07-15T11:13:56.880Z,2900
2017-07-15T11:15:07.156Z,1160
2017-07-15T11:16:17.488Z,1140
2017-07-15T11:17:27.777Z,850
2017-07-15T11:18:38.319Z,775
2017-07-15T11:19:48.605Z,740
2017-07-15T11:20:58.576Z,715
2017-07-15T11:22:08.840Z,700
2017-07-15T11:23:18.810Z,725
2017-07-15T11:24:29.383Z,770
2017-07-15T11:25:39.670Z,825
2017-07-15T11:26:49.937Z,945
2017-07-15T11:28:00.250Z,1660
2017-07-15T11:29:10.221Z,3085
2017-07-15T11:30:20.443Z,3170
2017-07-15T11:31:30.714Z,3185
2017-07-15T11:32:40.969Z,3225
2017-07-15T11:33:51.254Z,3200
2017-07-15T11:35:01.533Z,3240
2017-07-15T11:36:12.065Z,2375
2017-07-15T11:37:22.335Z,1830
2017-07-15T11:38:32.292Z,1080
2017-07-15T11:39:41.939Z,1020
2017-07-15T11:40:51.905Z,1040
2017-07-15T11:42:02.424Z,2290
2017-07-15T11:43:12.701Z,960
2017-07-15T11:44:23.002Z,1115
2017-07-15T11:45:33.292Z,3160
2017-07-15T11:46:43.588Z,3140
2017-07-15T11:47:53.794Z,3155
2017-07-15T11:49:04.082Z,3170
2017-07-15T11:50:14.052Z,3095
2017-07-15T11:51:24.030Z,2230
2017-07-15T11:52:33.697Z,1205
2017-07-15T11:53:44.226Z,2460
2017-07-15T11:54:54.528Z,3150
2017-07-15T11:56:04.797Z,2915
2017-07-15T11:57:14.757Z,2820
2017-07-15T11:58:24.418Z,2905
2017-07-15T11:59:34.948Z,1230
2017-07-15T12:00:45.236Z,2640
2017-07-15T12:01:55.516Z,2690
2017-07-15T12:03:05.799Z,2895
2017-07-15T12:04:16.075Z,2850
2017-07-15T12:05:26.656Z,2920
2017-07-15T12:06:36.949Z,3005
2017-07-15T12:07:47.238Z,3140
2017-07-15T12:08:57.517Z,3155
2017-07-15T12:10:07.788Z,3140
2017-07-15T12:11:18.335Z,3085
2017-07-15T12:12:28.638Z,3180
2017-07-15T12:13:38.915Z,3335
2017-07-15T12:14:48.239Z,3375
2017-07-15T12:15:58.522Z,3250
2017-07-15T12:17:08.742Z,3195
2017-07-15T12:18:19.030Z,3295
2017-07-15T12:19:29.324Z,3365
2017-07-15T12:20:39.618Z,3370
2017-07-15T12:21:49.888Z,3335
2017-07-15T12:23:00.406Z,2365
2017-07-15T12:24:10.692Z,1150
2017-07-15T12:25:20.979Z,3220
2017-07-15T12:26:31.275Z,3045
2017-07-15T12:27:41.557Z,3045
2017-07-15T12:28:52.095Z,3140
2017-07-15T12:30:02.399Z,3180
2017-07-15T12:31:12.692Z,3220
2017-07-15T12:32:22.981Z,3285
2017-07-15T12:33:32.640Z,3375
2017-07-15T12:34:43.164Z,3450
2017-07-15T12:35:53.445Z,3460
2017-07-15T12:37:03.736Z,3485
2017-07-15T12:38:13.693Z,3445
2017-07-15T12:39:23.337Z,3465
2017-07-15T12:40:33.239Z,2090
2017-07-15T12:41:43.201Z,3435
2017-07-15T12:42:53.487Z,1210
2017-07-15T12:44:03.145Z,3425
2017-07-15T12:45:13.111Z,3405
2017-07-15T12:46:23.331Z,3300
2017-07-15T12:47:33.609Z,3315
2017-07-15T12:48:43.920Z,3415
2017-07-15T12:49:53.587Z,3390
2017-07-15T12:51:03.890Z,3325
2017-07-15T12:52:14.434Z,3400
2017-07-15T12:53:24.717Z,3510
2017-07-15T12:54:35.007Z,3545
2017-07-15T12:55:44.970Z,3645
2017-07-15T12:56:55.249Z,3605
2017-07-15T12:58:05.769Z,3625
2017-07-15T12:59:16.076Z,3545
2017-07-15T13:00:25.730Z,3360
2017-07-15T13:01:36.004Z,3225
2017-07-15T13:02:46.292Z,3095
2017-07-15T13:03:56.871Z,3225
2017-07-15T13:05:07.153Z,3385
2017-07-15T13:06:17.423Z,3420
2017-07-15T13:07:27.722Z,1160
2017-07-15T13:08:38.006Z,3570
2017-07-15T13:09:47.267Z,1400
2017-07-15T13:10:57.560Z,1345
2017-07-15T13:12:07.847Z,3415
2017-07-15T13:13:18.126Z,3620
2017-07-15T13:14:28.105Z,3515
2017-07-15T13:15:38.640Z,3290
2017-07-15T13:16:48.902Z,1255
2017-07-15T13:17:59.176Z,1285
2017-07-15T13:19:09.457Z,3235
2017-07-15T13:20:19.764Z,3395
2017-07-15T13:21:30.292Z,3400
2017-07-15T13:22:40.562Z,3600
2017-07-15T13:23:50.844Z,3695
2017-07-15T13:25:01.138Z,3325
2017-07-15T13:26:11.410Z,1610
2017-07-15T13:27:21.645Z,1605
2017-07-15T13:28:31.932Z,1535
2017-07-15T13:29:42.227Z,1480
2017-07-15T13:30:52.517Z,1555
2017-07-15T13:32:02.795Z,1835
2017-07-15T13:33:13.331Z,3170
2017-07-15T13:34:23.290Z,3520
2017-07-15T13:35:33.569Z,2190
2017-07-15T13:36:43.211Z,1760
2017-07-15T13:37:53.485Z,1540
2017-07-15T13:39:04.030Z,3610
2017-07-15T13:40:13.999Z,4115
2017-07-15T13:41:24.277Z,2415
2017-07-15T13:42:34.547Z,3640
2017-07-15T13:43:44.842Z,3555
2017-07-15T13:44:55.383Z,3485
2017-07-15T13:46:05.651Z,3375
2017-07-15T13:47:15.937Z,2985
2017-07-15T13:48:25.916Z,2820
2017-07-15T13:49:36.205Z,3450
2017-07-15T13:50:46.793Z,3480
2017-07-15T13:51:56.769Z,3415
2017-07-15T13:53:07.043Z,3355
2017-07-15T13:54:17.320Z,3245
2017-07-15T13:55:27.602Z,3245
2017-07-15T13:56:38.134Z,2140
2017-07-15T13:57:48.103Z,3110
2017-07-15T13:58:58.066Z,3270
2017-07-15T14:00:08.032Z,3275
2017-07-15T14:01:18.304Z,3275
2017-07-15T14:02:28.840Z,3220
2017-07-15T14:03:38.792Z,3190
2017-07-15T14:04:48.755Z,3230
2017-07-15T14:05:59.022Z,3345
2017-07-15T14:07:09.301Z,3405
2017-07-15T14:08:19.518Z,3365
2017-07-15T14:09:29.786Z,3300
2017-07-15T14:10:40.077Z,3315
2017-07-15T14:11:50.370Z,3295
2017-07-15T14:13:00.637Z,3175
2017-07-15T14:14:11.178Z,3190
2017-07-15T14:15:21.485Z,3170
2017-07-15T14:16:31.744Z,3100
2017-07-15T14:17:41.398Z,2915
2017-07-15T14:18:51.357Z,3085
2017-07-15T14:20:01.907Z,3060
2017-07-15T14:21:12.179Z,2975
2017-07-15T14:22:22.437Z,2845
2017-07-15T14:23:32.711Z,2860
2017-07-15T14:24:42.993Z,1865
2017-07-15T14:25:53.234Z,2600
2017-07-15T14:27:03.188Z,1105
2017-07-15T14:28:13.476Z,835
2017-07-15T14:29:23.906Z,900
2017-07-15T14:30:34.204Z,775
2017-07-15T14:31:44.729Z,680
2017-07-15T14:32:54.707Z,600
2017-07-15T14:34:04.981Z,570
2017-07-15T14:35:15.245Z,555
2017-07-15T14:36:25.539Z,490
2017-07-15T14:37:36.078Z,435
2017-07-15T14:38:46.362Z,380
2017-07-15T14:39:56.637Z,330
2017-07-15T14:41:06.909Z,295
2017-07-15T14:42:16.890Z,270
2017-07-15T14:43:27.414Z,255
2017-07-15T14:44:37.686Z,245
2017-07-15T14:45:47.975Z,240
2017-07-15T14:46:57.966Z,240
2017-07-15T14:48:08.253Z,235
2017-07-15T14:49:18.479Z,230
2017-07-15T14:50:28.430Z,230
2017-07-15T14:51:38.718Z,225
2017-07-15T14:52:48.684Z,215
2017-07-15T14:53:58.997Z,210
2017-07-15T14:55:09.250Z,205
2017-07-15T14:56:18.931Z,200
2017-07-15T14:57:29.219Z,185
2017-07-15T14:58:39.546Z,175
2017-07-15T14:59:49.826Z,160
2017-07-15T15:01:00.038Z,150
2017-07-15T15:02:10.313Z,135
2017-07-15T15:03:20.586Z,125
2017-07-15T15:04:30.856Z,120
2017-07-15T15:05:41.140Z,115
2017-07-15T15:06:51.686Z,115
2017-07-15T15:08:01.962Z,115
2017-07-15T15:09:11.925Z,125
2017-07-15T15:10:22.195Z,125
2017-07-15T15:11:32.474Z,130
2017-07-15T15:12:42.683Z,140
2017-07-15T15:13:52.962Z,145
2017-07-15T15:15:02.965Z,165
2017-07-15T15:16:13.236Z,180
2017-07-15T15:17:23.503Z,205
2017-07-15T15:18:34.039Z,220
2017-07-15T15:19:43.999Z,230
2017-07-15T15:20:54.281Z,240
2017-07-15T15:22:04.572Z,260
2017-07-15T15:23:14.839Z,285
2017-07-15T15:24:25.361Z,315
2017-07-15T15:25:35.648Z,340
2017-07-15T15:26:45.918Z,355
2017-07-15T15:27:55.882Z,350
2017-07-15T15:29:06.155Z,325
2017-07-15T15:30:16.393Z,325
2017-07-15T15:31:26.339Z,300
2017-07-15T15:32:36.604Z,285
2017-07-15T15:33:46.888Z,250
2017-07-15T15:34:57.164Z,215
2017-07-15T15:36:07.369Z,200
2017-07-15T15:37:17.666Z,185
2017-07-15T15:38:27.949Z,170
2017-07-15T15:39:38.223Z,150
2017-07-15T15:40:48.511Z,135
2017-07-15T15:41:58.713Z,130
2017-07-15T15:43:08.678Z,130
2017-07-15T15:44:18.953Z,135
2017-07-15T15:45:29.236Z,135
2017-07-15T15:46:39.500Z,130
2017-07-15T15:47:49.689Z,130
2017-07-15T15:48:59.956Z,135
2017-07-15T15:50:10.226Z,135
2017-07-15T15:51:20.507Z,135
2017-07-15T15:52:30.467Z,125
2017-07-15T15:53:41.006Z,120
2017-07-15T15:54:51.309Z,110
2017-07-15T15:56:01.599Z,105
2017-07-15T15:57:11.267Z,105
2017-07-15T15:58:20.924Z,105
2017-07-15T15:59:31.118Z,105
2017-07-15T16:00:41.398Z,105
2017-07-15T16:01:51.677Z,100
2017-07-15T16:03:01.958Z,100
2017-07-15T16:04:12.226Z,105
2017-07-15T16:05:22.441Z,105
2017-07-15T16:06:32.737Z,110
2017-07-15T16:07:42.696Z,120
2017-07-15T16:08:52.994Z,130
2017-07-15T16:10:02.968Z,150
2017-07-15T16:11:13.166Z,175